Time;durP1;ratioP1;P1;durP2;ratioP2;P2;SDS_P1;SDS_P2;PMS_P1;PMS_P2;Temp;Humidity;BMP_temperature;BMP_pressure;BME280_temperature;BME280_humidity;BME280_pressure;Samples;Min_cycle;Max_cycle;Signal;HPM_P1;HPM_P2
2023/01/16 00:01:41;;;;;;;1.13;0.77;;;;;;;1.62;100.00;99518.44;5010571;28;20673;-76
2023/01/16 00:04:07;;;;;;;1.17;0.80;;;;;;;1.58;100.00;99516.72;5009628;28;20881;-76
2023/01/16 00:06:35;;;;;;;1.50;0.80;;;;;;;1.56;100.00;99515.03;5005348;28;20597;-76
2023/01/16 00:09:03;;;;;;;2.27;0.70;;;;;;;1.50;100.00;99513.38;5005236;28;20219;-76
2023/01/16 00:11:31;;;;;;;0.60;0.60;;;;;;;1.48;100.00;99508.25;5011839;28;20272;-76
2023/01/16 00:13:58;;;;;;;1.33;0.80;;;;;;;1.50;100.00;99508.25;5007917;28;20251;-76
2023/01/16 00:16:25;;;;;;;0.60;0.60;;;;;;;1.50;100.00;99505.66;5009442;28;20201;-76
2023/01/16 00:18:53;;;;;;;1.47;0.70;;;;;;;1.47;100.00;99500.56;5007599;28;20211;-77
2023/01/16 00:21:20;;;;;;;2.93;0.80;;;;;;;1.49;100.00;99501.38;5002502;28;20309;-76
2023/01/16 00:23:47;;;;;;;0.70;0.70;;;;;;;1.59;100.00;99497.88;5007417;28;20196;-76
2023/01/16 00:26:14;;;;;;;0.77;0.77;;;;;;;1.56;100.00;99500.47;4999786;28;20208;-76
2023/01/16 00:28:42;;;;;;;1.87;0.73;;;;;;;1.66;100.00;99501.28;5008920;28;20188;-76
2023/01/16 00:31:09;;;;;;;0.70;0.50;;;;;;;1.70;100.00;99497.81;5001970;28;20267;-76
2023/01/16 00:33:36;;;;;;;0.73;0.63;;;;;;;1.67;100.00;99492.69;5009576;28;20283;-76
2023/01/16 00:36:04;;;;;;;0.67;0.67;;;;;;;1.64;100.00;99485.88;5008378;28;20612;-76
2023/01/16 00:38:31;;;;;;;0.50;0.50;;;;;;;1.59;100.00;99476.50;5013032;28;20192;-76
2023/01/16 00:40:58;;;;;;;1.80;0.70;;;;;;;1.59;100.00;99479.06;5009846;28;20872;-76
2023/01/16 00:43:24;;;;;;;2.70;0.80;;;;;;;1.65;100.00;99477.31;5007387;28;20197;-76
2023/01/16 00:45:52;;;;;;;1.20;0.73;;;;;;;1.67;100.00;99473.00;5003014;28;20669;-76
2023/01/16 00:48:19;;;;;;;2.43;0.90;;;;;;;1.63;100.00;99470.44;5010745;28;20200;-76
2023/01/16 00:50:45;;;;;;;0.90;0.83;;;;;;;1.62;100.00;99476.44;5008232;28;20270;-77
2023/01/16 00:53:12;;;;;;;0.93;0.80;;;;;;;1.52;100.00;99470.53;5009045;28;20280;-76
2023/01/16 00:55:41;;;;;;;3.03;0.90;;;;;;;1.52;100.00;99473.09;5006975;28;20697;-76
2023/01/16 00:58:08;;;;;;;1.30;0.70;;;;;;;1.55;100.00;99478.22;5005508;28;20199;-77
2023/01/16 01:00:35;;;;;;;0.77;0.77;;;;;;;1.56;100.00;99479.06;4999700;28;20247;-76
2023/01/16 01:03:04;;;;;;;1.33;0.53;;;;;;;1.52;100.00;99473.09;5009204;28;20208;-76
2023/01/16 01:05:32;;;;;;;2.17;0.70;;;;;;;1.58;100.00;99473.03;5008750;28;20192;-76
2023/01/16 01:07:59;;;;;;;1.83;0.70;;;;;;;1.57;100.00;99484.22;5008273;28;20620;-77
2023/01/16 01:10:25;;;;;;;3.17;0.70;;;;;;;1.54;100.00;99485.94;5009933;28;20212;-76
2023/01/16 01:12:55;;;;;;;2.20;0.80;;;;;;;1.48;100.00;99484.28;5008156;28;20371;-76
2023/01/16 01:15:21;;;;;;;2.00;0.80;;;;;;;1.42;100.00;99480.03;5008738;28;20280;-76
2023/01/16 01:17:48;;;;;;;1.37;0.60;;;;;;;1.42;100.00;99477.44;5011726;28;20203;-76
2023/01/16 01:20:16;;;;;;;4.90;1.10;;;;;;;1.47;100.00;99474.84;5019449;28;20220;-76
2023/01/16 01:22:44;;;;;;;0.70;0.60;;;;;;;1.49;100.00;99481.69;5009579;28;20197;-76
2023/01/16 01:25:11;;;;;;;3.20;0.90;;;;;;;1.52;100.00;99473.94;5004437;28;20197;-76
2023/01/16 01:27:38;;;;;;;0.70;0.70;;;;;;;1.47;100.00;99470.56;5012079;28;20203;-76
2023/01/16 01:30:06;;;;;;;0.50;0.50;;;;;;;1.43;100.00;99468.06;5012465;28;20220;-76
2023/01/16 01:32:33;;;;;;;1.80;0.63;;;;;;;1.39;100.00;99476.63;5011463;28;20197;-76
2023/01/16 01:35:00;;;;;;;2.07;1.03;;;;;;;1.29;100.00;99465.56;5003813;28;20212;-76
2023/01/16 01:37:29;;;;;;;1.00;0.60;;;;;;;1.23;100.00;99465.59;5012570;28;20534;-76
2023/01/16 01:39:56;;;;;;;2.43;0.80;;;;;;;1.18;100.00;99462.22;5012256;28;20220;-76
2023/01/16 01:45:15;;;;;;;1.97;0.90;;;;;;;1.10;100.00;99452.00;5011444;28;20207;-76
2023/01/16 01:47:49;;;;;;;1.83;0.83;;;;;;;1.10;100.00;99449.44;5010174;28;20203;-76
2023/01/16 01:50:21;;;;;;;3.03;1.10;;;;;;;1.13;100.00;99452.84;5009169;28;20212;-76
2023/01/16 01:52:50;;;;;;;0.60;0.60;;;;;;;1.07;100.00;99445.19;5006999;28;20681;-76
2023/01/16 01:55:18;;;;;;;3.87;1.33;;;;;;;1.08;100.00;99443.47;5011795;28;20208;-76
2023/01/16 01:57:52;;;;;;;2.47;0.97;;;;;;;1.05;100.00;99443.47;5013693;28;20196;-76
2023/01/16 02:00:20;;;;;;;0.87;0.67;;;;;;;1.04;100.00;99437.50;5012553;28;20291;-76
2023/01/16 02:02:51;;;;;;;0.90;0.80;;;;;;;1.05;100.00;99444.31;5010993;28;20199;-76
2023/01/16 02:05:24;;;;;;;3.23;0.90;;;;;;;1.04;100.00;99450.31;5012082;28;20208;-76
2023/01/16 02:07:53;;;;;;;0.77;0.70;;;;;;;1.06;100.00;99442.63;5019280;28;20204;-76
2023/01/16 02:10:23;;;;;;;3.27;0.80;;;;;;;1.07;100.00;99434.03;5007205;28;20268;-76
2023/01/16 02:12:50;;;;;;;1.73;0.90;;;;;;;1.00;100.00;99440.91;5006387;28;20208;-76
2023/01/16 02:15:17;;;;;;;5.37;1.00;;;;;;;1.04;100.00;99441.75;5020359;28;20192;-74
2023/01/16 02:20:30;;;;;;;1.73;0.80;;;;;;;1.04;100.00;99434.06;5012733;28;20583;-74
2023/01/16 02:23:33;;;;;;;4.03;0.90;;;;;;;1.05;100.00;99434.03;5025198;28;20201;-74
2023/01/16 02:26:32;;;;;;;0.77;0.73;;;;;;;1.09;100.00;99435.75;5011050;28;20654;-74
2023/01/16 02:29:31;;;;;;;0.87;0.70;;;;;;;1.01;100.00;99428.97;4958248;28;20701;-74
2023/01/16 02:32:10;;;;;;;1.83;1.00;;;;;;;0.95;100.00;99427.28;5000275;28;20238;-74
2023/01/16 02:34:56;;;;;;;3.43;1.20;;;;;;;0.94;100.00;99423.84;5011298;28;20192;-74
2023/01/16 02:37:32;;;;;;;2.87;0.80;;;;;;;0.91;100.00;99417.88;5014002;28;20315;-74
2023/01/16 02:40:08;;;;;;;2.03;1.07;;;;;;;0.88;100.00;99421.34;5009965;28;20212;-74
2023/01/16 02:42:43;;;;;;;1.57;0.70;;;;;;;0.81;100.00;99414.53;5011023;28;20197;-74
2023/01/16 02:45:17;;;;;;;2.00;0.90;;;;;;;0.75;100.00;99407.69;5008551;28;20204;-74
2023/01/16 02:47:53;;;;;;;2.53;1.23;;;;;;;0.69;100.00;99397.50;5010916;28;20557;-74
2023/01/16 02:50:26;;;;;;;0.70;0.70;;;;;;;0.64;100.00;99388.97;5011339;28;20224;-74
2023/01/16 02:52:59;;;;;;;4.47;0.80;;;;;;;0.62;100.00;99389.84;5007276;28;20670;-74
2023/01/16 02:55:32;;;;;;;3.03;0.80;;;;;;;0.55;100.00;99381.31;5014157;28;20211;-74
2023/01/16 02:58:04;;;;;;;1.30;0.80;;;;;;;0.50;100.00;99388.19;5007706;28;20719;-74
2023/01/16 03:00:31;;;;;;;1.10;0.80;;;;;;;0.41;100.00;99386.53;5005457;28;20347;-74
2023/01/16 03:02:59;;;;;;;1.60;0.80;;;;;;;0.35;100.00;99382.28;5009191;28;20235;-74
2023/01/16 03:05:36;;;;;;;4.53;0.93;;;;;;;0.28;100.00;99383.16;5010254;28;20542;-74
2023/01/16 03:08:26;;;;;;;1.03;0.70;;;;;;;0.22;100.00;99372.91;5009134;28;20236;-74
2023/01/16 03:11:22;;;;;;;2.77;0.73;;;;;;;0.16;100.00;99363.53;5011538;28;20224;-74
2023/01/16 03:14:10;;;;;;;1.47;0.70;;;;;;;0.14;100.00;99356.72;5011313;28;20226;-74
2023/01/16 03:16:44;;;;;;;0.60;0.60;;;;;;;0.09;100.00;99358.44;5003931;28;20211;-74
2023/01/16 03:19:28;;;;;;;0.77;0.60;;;;;;;0.09;100.00;99355.88;5007268;28;20207;-74
2023/01/16 03:22:17;;;;;;;2.83;0.70;;;;;;;0.04;100.00;99352.50;5011398;28;20200;-74
2023/01/16 03:24:58;;;;;;;0.67;0.67;;;;;;;0.04;100.00;99342.25;5018194;28;20203;-74
2023/01/16 03:27:33;;;;;;;1.10;0.77;;;;;;;0.04;100.00;99340.53;5006721;28;20200;-74
2023/01/16 03:30:09;;;;;;;1.10;0.80;;;;;;;0.04;100.00;99337.97;5017763;28;20207;-74
2023/01/16 03:32:41;;;;;;;1.10;0.87;;;;;;;0.03;100.00;99338.81;5008907;28;20665;-74
2023/01/16 03:35:14;;;;;;;0.87;0.67;;;;;;;-0.03;100.00;99333.72;5009591;28;20543;-74
2023/01/16 03:37:47;;;;;;;0.80;0.60;;;;;;;-0.04;100.00;99324.31;5007200;28;20424;-74
2023/01/16 03:40:16;;;;;;;1.47;0.70;;;;;;;-0.09;100.00;99323.47;5010881;28;20307;-74
2023/01/16 03:42:49;;;;;;;0.70;0.70;;;;;;;-0.10;100.00;99324.34;5012423;28;20217;-74
2023/01/16 03:45:22;;;;;;;3.03;0.80;;;;;;;-0.15;100.00;99323.53;5014126;28;20203;-74
2023/01/16 03:47:55;;;;;;;0.80;0.60;;;;;;;-0.20;100.00;99326.09;5010248;28;20661;-74
2023/01/16 03:50:27;;;;;;;4.80;1.50;;;;;;;-0.25;100.00;99330.38;5010971;28;20212;-74
2023/01/16 03:52:59;;;;;;;3.93;1.43;;;;;;;-0.28;100.00;99322.69;5012954;28;20272;-74
2023/01/16 03:55:30;;;;;;;2.77;0.80;;;;;;;-0.31;100.00;99322.72;5015843;28;20197;-74
2023/01/16 03:58:03;;;;;;;0.90;0.90;;;;;;;-0.33;100.00;99320.16;5013461;28;20200;-75
2023/01/16 04:00:39;;;;;;;2.30;1.00;;;;;;;-0.29;100.00;99315.88;5010862;28;20217;-74
2023/01/16 04:03:11;;;;;;;1.30;0.73;;;;;;;-0.26;100.00;99315.88;5010167;28;20703;-74
2023/01/16 04:05:47;;;;;;;0.90;0.70;;;;;;;-0.24;100.00;99312.44;5009489;28;20216;-73
2023/01/16 04:08:17;;;;;;;1.60;0.70;;;;;;;-0.25;100.00;99305.59;5003894;28;20280;-73
2023/01/16 04:10:47;;;;;;;0.50;0.50;;;;;;;-0.24;100.00;99315.00;5006013;28;20325;-74
2023/01/16 04:13:18;;;;;;;2.70;0.70;;;;;;;-0.27;100.00;99307.31;5008498;28;20196;-74
2023/01/16 04:15:49;;;;;;;2.13;0.90;;;;;;;-0.24;100.00;99301.34;5011515;28;20553;-75
2023/01/16 04:18:17;;;;;;;1.47;1.00;;;;;;;-0.25;100.00;99289.38;5009299;28;20418;-74
2023/01/16 04:20:49;;;;;;;2.50;0.80;;;;;;;-0.29;100.00;99282.56;5009336;28;20272;-74
2023/01/16 04:23:16;;;;;;;1.00;0.97;;;;;;;-0.31;100.00;99287.69;5009630;28;20216;-74
2023/01/16 04:25:43;;;;;;;3.00;1.27;;;;;;;-0.36;100.00;99275.78;5010012;28;20196;-74
2023/01/16 04:28:10;;;;;;;1.37;1.10;;;;;;;-0.39;100.00;99279.19;5006047;28;20259;-74
2023/01/16 04:30:37;;;;;;;2.67;1.20;;;;;;;-0.40;100.00;99267.25;5008456;28;20578;-74
2023/01/16 04:33:05;;;;;;;1.00;0.90;;;;;;;-0.44;100.00;99265.53;5010105;28;20193;-74
2023/01/16 04:35:33;;;;;;;5.13;1.23;;;;;;;-0.49;100.00;99260.44;5008748;28;20215;-74
2023/01/16 04:38:02;;;;;;;2.23;1.27;;;;;;;-0.54;100.00;99258.75;5010240;28;20649;-74
2023/01/16 04:40:28;;;;;;;1.27;1.00;;;;;;;-0.61;100.00;99251.06;5008749;28;20220;-74
2023/01/16 04:42:55;;;;;;;2.90;1.13;;;;;;;-0.63;100.00;99254.50;5016026;28;20216;-74
2023/01/16 04:45:22;;;;;;;3.63;1.77;;;;;;;-0.59;100.00;99243.41;5006623;28;20207;-74
2023/01/16 04:47:50;;;;;;;1.87;1.40;;;;;;;-0.51;100.00;99243.38;5011251;28;20218;-74
2023/01/16 04:50:18;;;;;;;3.77;1.50;;;;;;;-0.47;100.00;99238.25;5013555;28;20222;-74
2023/01/16 04:52:45;;;;;;;4.97;1.53;;;;;;;-0.45;100.00;99238.22;5016525;28;20203;-74
2023/01/16 04:55:14;;;;;;;2.30;1.60;;;;;;;-0.42;100.00;99233.09;5007706;28;20188;-74
2023/01/16 04:57:41;;;;;;;3.13;2.10;;;;;;;-0.32;100.00;99229.63;5009619;28;20763;-74
2023/01/16 05:00:11;;;;;;;4.50;2.13;;;;;;;-0.27;100.00;99234.75;5009967;28;20258;-74
2023/01/16 05:02:38;;;;;;;3.57;2.07;;;;;;;-0.27;100.00;99225.34;5009939;28;20211;-74
2023/01/16 05:05:05;;;;;;;3.87;1.90;;;;;;;-0.29;100.00;99227.06;5009076;28;20200;-74
2023/01/16 05:07:32;;;;;;;2.93;1.87;;;;;;;-0.27;100.00;99221.94;5007537;28;20201;-74
2023/01/16 05:09:59;;;;;;;3.23;1.90;;;;;;;-0.27;100.00;99215.09;5018458;28;20452;-74
2023/01/16 05:12:27;;;;;;;2.37;1.70;;;;;;;-0.20;100.00;99213.34;5009097;28;20201;-74
2023/01/16 05:14:54;;;;;;;5.43;2.63;;;;;;;-0.23;100.00;99221.94;5008583;28;20226;-74
2023/01/16 05:17:24;;;;;;;5.33;2.73;;;;;;;-0.30;100.00;99207.44;5010988;28;20243;-74
2023/01/16 05:19:50;;;;;;;2.47;1.90;;;;;;;-0.28;100.00;99210.84;5018655;28;20233;-74
2023/01/16 05:22:17;;;;;;;6.83;1.90;;;;;;;-0.27;100.00;99202.28;5008396;28;20240;-74
2023/01/16 05:24:47;;;;;;;3.93;2.00;;;;;;;-0.29;100.00;99204.00;5018157;28;20207;-74
2023/01/16 05:27:13;;;;;;;4.60;1.90;;;;;;;-0.25;100.00;99203.13;5002711;28;20674;-74
2023/01/16 05:29:42;;;;;;;1.43;1.20;;;;;;;-0.33;100.00;99198.94;5001939;28;20240;-74
2023/01/16 05:32:08;;;;;;;1.63;1.53;;;;;;;-0.40;100.00;99201.50;5009866;28;20196;-74
2023/01/16 05:34:35;;;;;;;2.77;1.60;;;;;;;-0.43;100.00;99200.66;5008335;28;20719;-74
2023/01/16 05:37:02;;;;;;;4.97;1.40;;;;;;;-0.46;100.00;99198.09;5012577;28;20201;-74
2023/01/16 05:39:29;;;;;;;3.00;1.63;;;;;;;-0.49;100.00;99193.88;5016941;28;20625;-74
2023/01/16 05:41:56;;;;;;;3.93;1.03;;;;;;;-0.45;100.00;99189.56;5009058;28;20224;-74
2023/01/16 05:44:22;;;;;;;2.07;1.70;;;;;;;-0.40;100.00;99187.84;5009392;28;20204;-74
2023/01/16 05:46:51;;;;;;;10.20;4.97;;;;;;;-0.43;100.00;99178.44;5001239;28;20292;-74
2023/01/16 05:49:18;;;;;;;6.80;3.83;;;;;;;-0.41;100.00;99181.00;5008884;28;20200;-74
2023/01/16 05:51:44;;;;;;;14.87;7.37;;;;;;;-0.41;100.00;99179.28;5034319;22;20238;-70
2023/01/16 05:54:12;;;;;;;7.70;4.00;;;;;;;-0.41;100.00;99175.88;4987217;28;20463;-70
2023/01/16 05:56:38;;;;;;;16.53;6.13;;;;;;;-0.39;100.00;99180.16;5004289;28;20201;-71
2023/01/16 05:59:05;;;;;;;22.47;10.30;;;;;;;-0.38;100.00;99173.31;4995861;28;20259;-70
2023/01/16 06:01:31;;;;;;;13.10;6.50;;;;;;;-0.42;100.00;99175.06;4997619;28;20200;-70
2023/01/16 06:03:59;;;;;;;17.40;7.67;;;;;;;-0.47;100.00;99175.94;5014821;22;20185;-74
2023/01/16 06:06:25;;;;;;;7.40;3.63;;;;;;;-0.47;100.00;99176.78;4999833;28;20213;-74
2023/01/16 06:08:52;;;;;;;8.43;4.07;;;;;;;-0.47;100.00;99170.81;5006902;28;20193;-74
2023/01/16 06:11:18;;;;;;;7.07;4.10;;;;;;;-0.49;100.00;99167.38;5005648;28;20292;-74
2023/01/16 06:13:46;;;;;;;5.37;1.90;;;;;;;-0.51;100.00;99166.53;5004852;28;20193;-74
2023/01/16 06:16:13;;;;;;;4.70;2.50;;;;;;;-0.54;100.00;99167.44;4999743;28;20361;-74
2023/01/16 06:18:39;;;;;;;2.97;2.50;;;;;;;-0.56;100.00;99166.59;5002339;28;20714;-74
2023/01/16 06:21:07;;;;;;;3.63;2.83;;;;;;;-0.59;100.00;99157.19;5003093;28;20221;-74
2023/01/16 06:23:33;;;;;;;3.10;2.07;;;;;;;-0.63;100.00;99165.75;5001205;28;20513;-74
2023/01/16 06:26:00;;;;;;;5.40;2.87;;;;;;;-0.59;100.00;99164.03;5002998;28;20222;-74
2023/01/16 06:28:29;;;;;;;3.67;2.47;;;;;;;-0.62;100.00;99153.78;5003953;28;20203;-71
2023/01/16 06:30:55;;;;;;;5.73;2.67;;;;;;;-0.63;100.00;99149.56;5001360;28;20201;-71
2023/01/16 06:33:22;;;;;;;4.50;1.73;;;;;;;-0.64;100.00;99146.13;5004109;28;20272;-71
2023/01/16 06:35:49;;;;;;;6.03;2.53;;;;;;;-0.61;100.00;99145.28;5002487;28;20257;-72
2023/01/16 06:38:16;;;;;;;3.17;2.20;;;;;;;-0.63;100.00;99145.28;5003131;28;20208;-71
2023/01/16 06:40:44;;;;;;;4.27;3.13;;;;;;;-0.64;100.00;99141.00;5018986;28;20557;-71
2023/01/16 06:43:11;;;;;;;9.53;3.10;;;;;;;-0.63;100.00;99132.47;5014323;28;20279;-71
2023/01/16 06:45:37;;;;;;;4.27;1.80;;;;;;;-0.62;100.00;99131.59;4999480;28;20221;-71
2023/01/16 06:48:04;;;;;;;5.97;2.43;;;;;;;-0.63;100.00;99136.75;4998454;28;20208;-71
2023/01/16 06:50:30;;;;;;;4.00;3.17;;;;;;;-0.63;100.00;99134.19;5004419;28;20201;-71
2023/01/16 06:52:56;;;;;;;7.43;2.60;;;;;;;-0.63;100.00;99129.91;5000378;28;20196;-71
2023/01/16 06:55:24;;;;;;;2.80;1.20;;;;;;;-0.57;100.00;99131.59;5002909;28;20517;-71
2023/01/16 06:57:51;;;;;;;1.73;1.60;;;;;;;-0.62;100.00;99125.63;5001176;28;20204;-71
2023/01/16 07:00:18;;;;;;;2.80;1.60;;;;;;;-0.61;100.00;99117.09;5003451;28;20502;-71
2023/01/16 07:02:44;;;;;;;6.47;1.60;;;;;;;-0.60;100.00;99119.66;4991812;28;20234;-71
2023/01/16 07:05:11;;;;;;;2.67;1.77;;;;;;;-0.57;100.00;99121.34;5001970;28;20396;-71
2023/01/16 07:07:37;;;;;;;2.50;1.50;;;;;;;-0.50;100.00;99119.59;4999245;28;20200;-71
2023/01/16 07:10:04;;;;;;;2.90;1.50;;;;;;;-0.48;100.00;99120.44;5001571;28;20193;-71
2023/01/16 07:12:32;;;;;;;3.37;2.17;;;;;;;-0.44;100.00;99123.00;4999387;28;20224;-71
2023/01/16 07:23:19;;;;;;;6.83;2.03;;;;;;;-0.37;100.00;99118.66;5005229;28;20229;-71
2023/01/16 07:25:46;;;;;;;6.17;2.17;;;;;;;-0.35;100.00;99118.66;5020501;28;20224;-72
2023/01/16 07:28:15;;;;;;;4.03;2.60;;;;;;;-0.31;100.00;99112.69;5002761;28;20216;-71
2023/01/16 07:30:42;;;;;;;5.47;3.17;;;;;;;-0.23;100.00;99110.91;5005331;28;20208;-71
2023/01/16 07:33:08;;;;;;;6.00;2.93;;;;;;;-0.17;100.00;99116.00;5007654;28;20197;-71
2023/01/16 07:35:34;;;;;;;4.30;2.93;;;;;;;-0.10;100.00;99111.69;5005279;28;20711;-71
2023/01/16 07:38:01;;;;;;;3.77;2.93;;;;;;;-0.04;100.00;99101.38;5001178;28;20201;-71
2023/01/16 07:40:27;;;;;;;5.33;3.43;;;;;;;0.04;100.00;99091.09;5004134;28;20196;-71
2023/01/16 07:42:54;;;;;;;4.47;2.63;;;;;;;0.11;100.00;99096.13;5007197;28;20224;-71
2023/01/16 07:45:22;;;;;;;2.27;2.00;;;;;;;0.18;100.00;99089.25;5004747;28;20221;-71
2023/01/16 07:47:49;;;;;;;4.87;1.60;;;;;;;0.27;100.00;99091.72;5000659;28;20236;-71
2023/01/16 07:50:16;;;;;;;4.63;2.20;;;;;;;0.33;100.00;99086.53;5003153;28;20195;-71
2023/01/16 07:52:43;;;;;;;2.87;1.67;;;;;;;0.41;100.00;99088.22;5007282;28;20202;-71
2023/01/16 07:55:09;;;;;;;4.63;1.70;;;;;;;0.49;100.00;99082.13;5001181;28;20303;-71
2023/01/16 07:57:36;;;;;;;4.07;2.13;;;;;;;0.57;100.00;99074.34;5006072;28;20205;-71
2023/01/16 08:00:04;;;;;;;1.87;1.43;;;;;;;0.64;100.00;99065.72;5004251;28;20207;-71
2023/01/16 08:02:39;;;;;;;2.00;1.57;;;;;;;0.71;100.00;99061.38;5001031;28;20710;-72
2023/01/16 08:05:07;;;;;;;2.47;1.60;;;;;;;0.77;100.00;99058.75;5002734;28;20240;-71
2023/01/16 08:07:34;;;;;;;1.67;1.37;;;;;;;0.83;100.00;99062.97;5004864;28;20202;-72
2023/01/16 08:10:00;;;;;;;1.57;1.27;;;;;;;0.89;100.00;99058.59;5001228;28;20202;-71
2023/01/16 08:12:27;;;;;;;2.27;1.20;;;;;;;0.95;100.00;99052.56;5008038;28;20208;-71
2023/01/16 08:14:53;;;;;;;2.90;1.57;;;;;;;1.01;100.00;99044.78;5003386;28;20562;-72
2023/01/16 08:17:19;;;;;;;2.23;1.30;;;;;;;1.06;100.00;99045.56;4999452;28;20201;-71
2023/01/16 08:19:47;;;;;;;2.80;1.57;;;;;;;1.13;100.00;99046.34;5001470;28;20461;-72
2023/01/16 08:22:13;;;;;;;3.47;1.40;;;;;;;1.20;100.00;99039.41;5007530;28;20200;-72
2023/01/16 08:24:40;;;;;;;2.80;1.00;;;;;;;1.27;100.00;99031.59;4999388;28;20213;-72
2023/01/16 08:27:06;;;;;;;1.60;1.00;;;;;;;1.31;100.00;99034.97;5000856;28;20281;-71
2023/01/16 08:29:32;;;;;;;2.03;1.10;;;;;;;1.36;100.00;99030.63;5008822;28;20196;-72
2023/01/16 08:31:59;;;;;;;1.87;1.30;;;;;;;1.41;100.00;99022.88;5001289;28;20519;-71
2023/01/16 08:34:25;;;;;;;16.10;6.93;;;;;;;1.45;100.00;99020.22;5005340;28;20216;-71
2023/01/16 08:36:53;;;;;;;13.97;6.30;;;;;;;1.52;100.00;99003.00;5004330;28;20205;-72
2023/01/16 08:39:19;;;;;;;5.77;3.53;;;;;;;1.61;100.00;98994.28;5003965;28;20196;-71
2023/01/16 08:52:49;;;;;;;8.67;5.00;;;;;;;1.72;100.00;98965.84;5000474;28;20300;-72
2023/01/16 08:55:16;;;;;;;3.20;2.33;;;;;;;1.72;100.00;98964.13;5000122;28;20584;-72
2023/01/16 08:57:42;;;;;;;2.93;2.40;;;;;;;1.73;100.00;98962.44;5005197;28;20196;-72
2023/01/16 09:00:10;;;;;;;2.13;1.50;;;;;;;1.73;100.00;98955.56;4999403;28;20216;-72
2023/01/16 09:02:38;;;;;;;3.47;2.20;;;;;;;1.81;100.00;98960.56;5001930;28;20231;-72
2023/01/16 09:05:05;;;;;;;4.23;2.27;;;;;;;1.81;100.00;98950.28;5003305;28;20897;-72
2023/01/16 09:07:32;;;;;;;2.30;1.57;;;;;;;1.84;100.00;98947.66;4998884;28;20216;-72
2023/01/16 09:09:59;;;;;;;12.93;5.83;;;;;;;1.85;100.00;98937.34;5018428;28;20300;-72
2023/01/16 09:15:11;;;;;;;4.20;2.77;;;;;;;1.94;100.00;98931.22;5005742;28;20224;-72
2023/01/16 09:17:38;;;;;;;3.43;2.10;;;;;;;1.97;100.00;98931.16;5002095;28;20216;-72
2023/01/16 09:20:06;;;;;;;3.13;2.30;;;;;;;1.99;100.00;98924.25;5002825;28;20208;-72
2023/01/16 09:22:32;;;;;;;7.20;3.97;;;;;;;2.04;100.00;98916.44;5001848;28;20551;-72
2023/01/16 09:25:00;;;;;;;5.67;1.40;;;;;;;2.13;100.00;98925.72;5004536;28;20220;-72
2023/01/16 09:27:26;;;;;;;4.00;1.13;;;;;;;2.16;100.00;98920.50;5016920;28;20213;-72
2023/01/16 09:29:53;;;;;;;4.73;1.80;;;;;;;2.18;100.00;98918.75;5002713;28;20249;-72
2023/01/16 09:32:19;;;;;;;6.33;1.73;;;;;;;2.20;100.00;98911.84;5007758;28;20204;-72
2023/01/16 09:34:46;;;;;;;4.13;2.17;;;;;;;2.26;100.00;98917.72;5004610;28;20693;-72
2023/01/16 09:37:12;;;;;;;2.27;1.40;;;;;;;2.29;100.00;98909.13;5006189;28;20568;-72
2023/01/16 09:39:39;;;;;;;1.87;1.17;;;;;;;2.31;100.00;98906.53;5005785;28;20218;-72
2023/01/16 09:45:20;;;;;;;4.33;1.43;;;;;;;2.43;100.00;98883.97;5006986;28;20688;-72
2023/01/16 09:47:51;;;;;;;3.93;1.13;;;;;;;2.50;100.00;98884.69;5005768;28;20200;-72
2023/01/16 09:50:33;;;;;;;1.33;0.97;;;;;;;2.56;100.00;98883.72;5026239;28;20207;-72
2023/01/16 09:58:44;;;;;;;1.63;1.20;;;;;;;2.71;100.00;98859.34;5010583;28;20204;-72
2023/01/16 10:01:14;;;;;;;1.50;1.10;;;;;;;2.80;100.00;98854.03;5007092;28;20228;-72
2023/01/16 10:03:42;;;;;;;6.57;3.63;;;;;;;2.83;100.00;98846.22;5002980;28;20292;-72
2023/01/16 10:06:24;;;;;;;11.87;5.40;;;;;;;2.93;100.00;98831.41;5005963;28;20449;-72
2023/01/16 10:09:03;;;;;;;14.63;8.13;;;;;;;2.93;100.00;98832.25;5018829;28;20197;-72
2023/01/16 10:11:38;;;;;;;15.83;8.17;;;;;;;2.98;100.00;98829.56;5004319;28;20219;-72
2023/01/16 10:14:23;;;;;;;10.23;2.20;;;;;;;3.03;100.00;98827.75;5002992;28;20271;-72
2023/01/16 10:17:02;;;;;;;6.27;2.90;;;;;;;3.05;100.00;98820.81;5003501;28;20197;-72
2023/01/16 10:19:45;;;;;;;7.43;3.70;;;;;;;3.17;100.00;98811.94;5009390;28;20197;-72
2023/01/16 10:22:27;;;;;;;20.97;9.73;;;;;;;3.25;100.00;98809.19;5006351;28;20197;-72
2023/01/16 10:25:06;;;;;;;9.03;5.20;;;;;;;3.32;100.00;98800.41;5006392;28;20224;-72
2023/01/16 10:27:42;;;;;;;6.07;3.43;;;;;;;3.34;100.00;98802.06;5005953;28;20200;-72
2023/01/16 10:30:17;;;;;;;3.40;2.43;;;;;;;3.34;100.00;98798.63;5006385;28;20799;-72
2023/01/16 10:32:47;;;;;;;1.43;1.13;;;;;;;3.44;100.00;98788.94;5000502;28;20273;-72
2023/01/16 10:35:18;;;;;;;2.93;1.83;;;;;;;3.51;100.00;98788.72;5002177;28;20235;-72
2023/01/16 10:37:46;;;;;;;2.57;1.10;;;;;;;3.62;100.00;98783.28;5004339;28;20253;-72
2023/01/16 10:40:19;;;;;;;2.50;1.13;;;;;;;3.65;100.00;98772.06;5003844;28;20678;-72
2023/01/16 10:51:07;;;;;;;1.67;1.20;;;;;;;3.76;100.00;98773.47;5001761;28;20204;-72
2023/01/16 10:53:38;;;;;;;1.80;0.83;;;;;;;3.86;100.00;98766.28;5000354;28;20204;-72
2023/01/16 10:56:05;;;;;;;0.90;0.70;;;;;;;3.86;100.00;98766.28;5017115;28;20827;-72
2023/01/16 10:58:34;;;;;;;1.17;0.63;;;;;;;3.89;100.00;98761.06;5002410;28;20205;-72
2023/01/16 11:01:06;;;;;;;1.50;0.90;;;;;;;3.91;100.00;98755.88;5001311;28;20197;-72
2023/01/16 11:03:36;;;;;;;4.80;0.87;;;;;;;3.97;100.00;98759.13;5001525;28;20214;-72
2023/01/16 11:06:08;;;;;;;0.97;0.77;;;;;;;4.03;100.00;98754.63;4999074;28;20223;-72
2023/01/16 11:08:35;;;;;;;1.73;1.13;;;;;;;4.05;100.00;98743.41;5000482;28;20206;-72
2023/01/16 11:11:02;;;;;;;1.03;0.90;;;;;;;4.08;100.00;98732.13;4999294;28;20213;-72
2023/01/16 11:19:18;;;;;;;5.23;1.07;;;;;;;4.18;100.00;98724.06;5002222;28;20243;-72
2023/01/16 11:21:45;;;;;;;1.37;1.00;;;;;;;4.13;100.00;98720.81;5003643;28;20201;-72
2023/01/16 11:24:16;;;;;;;2.57;1.83;;;;;;;4.14;100.00;98704.44;5003833;28;20216;-72
2023/01/16 11:26:46;;;;;;;2.53;1.27;;;;;;;4.16;100.00;98694.06;5000534;28;20197;-72
2023/01/16 11:29:17;;;;;;;1.20;0.63;;;;;;;4.13;100.00;98684.72;5008675;28;20209;-72
2023/01/16 11:31:53;;;;;;;3.97;1.20;;;;;;;4.23;100.00;98687.84;5005199;28;20206;-72
2023/01/16 11:34:21;;;;;;;2.83;1.43;;;;;;;4.23;100.00;98684.41;5021795;28;20772;-72
2023/01/16 11:36:48;;;;;;;2.53;0.87;;;;;;;4.22;100.00;98669.81;5004113;28;20201;-72
2023/01/16 11:39:20;;;;;;;3.00;1.10;;;;;;;4.18;100.00;98669.06;5015127;28;20199;-72
2023/01/16 11:41:50;;;;;;;2.07;1.40;;;;;;;4.18;100.00;98653.59;5015830;28;20202;-72
2023/01/16 11:47:05;;;;;;;2.93;1.43;;;;;;;4.21;100.00;98644.94;5001601;28;20658;-72
2023/01/16 11:49:36;;;;;;;2.13;1.20;;;;;;;4.18;100.00;98633.78;5000638;28;20202;-72
2023/01/16 11:52:03;;;;;;;2.20;1.10;;;;;;;4.22;100.00;98628.53;5003532;28;20248;-72
2023/01/16 11:54:32;;;;;;;2.23;1.43;;;;;;;4.27;100.00;98631.81;4998989;28;20216;-72
2023/01/16 11:57:14;;;;;;;0.87;0.73;;;;;;;4.30;100.00;98622.25;4999674;28;20201;-72
2023/01/16 12:00:02;;;;;;;1.73;1.00;;;;;;;4.30;100.00;98627.41;5001870;28;20201;-72
2023/01/16 12:03:00;;;;;;;1.37;0.90;;;;;;;4.35;100.00;98611.78;5003238;28;20216;-72
2023/01/16 12:05:57;;;;;;;2.30;1.00;;;;;;;4.36;100.00;98603.13;5024867;23;20241;-74
2023/01/16 12:08:51;;;;;;;3.60;1.43;;;;;;;4.36;100.00;98601.41;5023183;28;20282;-74
2023/01/16 12:11:29;;;;;;;1.70;0.77;;;;;;;4.39;100.00;98594.47;5036605;28;20577;-74
2023/01/16 12:14:18;;;;;;;1.83;0.87;;;;;;;4.41;100.00;98590.91;5016294;28;20287;-75
2023/01/16 12:16:57;;;;;;;2.43;1.20;;;;;;;4.42;100.00;98584.06;5020435;28;20211;-75
2023/01/16 12:19:50;;;;;;;1.93;1.20;;;;;;;4.43;100.00;98568.50;5019386;28;20279;-75
2023/01/16 12:22:27;;;;;;;1.63;1.03;;;;;;;4.42;100.00;98573.72;5017680;28;20215;-74
2023/01/16 12:25:04;;;;;;;1.17;0.90;;;;;;;4.42;100.00;98571.97;5022003;28;20219;-75
2023/01/16 12:27:41;;;;;;;1.63;1.13;;;;;;;4.46;100.00;98562.41;5022814;28;20303;-74
2023/01/16 12:30:24;;;;;;;1.37;0.90;;;;;;;4.44;100.00;98551.28;5029108;28;20214;-74
2023/01/16 12:33:07;;;;;;;3.63;1.10;;;;;;;4.46;100.00;98554.66;5018248;28;20566;-74
2023/01/16 12:35:48;;;;;;;3.63;1.23;;;;;;;4.45;100.00;98540.06;5021736;28;20224;-74
2023/01/16 12:38:18;;;;;;;2.20;1.07;;;;;;;4.43;100.00;98534.09;5016443;28;20200;-74